Time;durP1;ratioP1;P1;durP2;ratioP2;P2;SDS_P1;SDS_P2;PMS_P1;PMS_P2;Temp;Humidity;BMP_temperature;BMP_pressure;BME280_temperature;BME280_humidity;BME280_pressure;Samples;Min_cycle;Max_cycle;Signal;HPM_P1;HPM_P2
2021/09/26 00:02:07;;;;;;;41.25;9.45;;;;;;;;;;4953408;28;20031;-77
2021/09/26 00:04:33;;;;;;;35.28;11.40;;;;;;;;;;4963340;28;20602;-77
2021/09/26 00:06:59;;;;;;;30.10;8.77;;;;;;;;;;4962208;28;20058;-80
2021/09/26 00:09:28;;;;;;;29.42;7.43;;;;;;;;;;4958263;28;20158;-77
2021/09/26 00:11:54;;;;;;;32.60;8.18;;;;;;;;;;4961036;28;20030;-77
2021/09/26 00:14:21;;;;;;;34.10;6.60;;;;;;;;;;4970246;28;20124;-77
2021/09/26 00:16:47;;;;;;;36.88;8.27;;;;;;;;;;4963884;28;20034;-77
2021/09/26 00:19:13;;;;;;;34.42;7.53;;;;;;;;;;4968183;28;20578;-77
2021/09/26 00:21:39;;;;;;;35.00;8.70;;;;;;;;;;4960316;28;20019;-77
2021/09/26 00:24:06;;;;;;;31.05;8.05;;;;;;;;;;4956973;28;20118;-77
2021/09/26 00:26:32;;;;;;;30.13;7.45;;;;;;;;;;4972224;28;20049;-77
2021/09/26 00:28:58;;;;;;;39.67;8.02;;;;;;;;;;4956345;28;20046;-77
2021/09/26 00:31:24;;;;;;;36.38;7.45;;;;;;;;;;4955197;28;22750;-77
2021/09/26 00:33:51;;;;;;;29.73;7.00;;;;;;;;;;4978182;28;20031;-77
2021/09/26 00:36:17;;;;;;;40.05;7.93;;;;;;;;;;4958633;28;20030;-77
2021/09/26 00:38:43;;;;;;;31.45;7.07;;;;;;;;;;4975095;28;20038;-77
2021/09/26 00:41:09;;;;;;;34.53;8.02;;;;;;;;;;4955288;28;20077;-77
2021/09/26 00:43:37;;;;;;;32.88;7.82;;;;;;;;;;4961595;28;20058;-78
2021/09/26 00:46:05;;;;;;;34.35;8.52;;;;;;;;;;4974302;28;20023;-77
2021/09/26 00:48:31;;;;;;;32.63;7.25;;;;;;;;;;4961820;28;20069;-77
2021/09/26 00:50:57;;;;;;;33.08;7.35;;;;;;;;;;4958284;28;20039;-77
2021/09/26 00:53:24;;;;;;;35.33;7.38;;;;;;;;;;4960259;28;20035;-77
2021/09/26 00:55:54;;;;;;;31.52;6.65;;;;;;;;;;4962220;28;20034;-77
2021/09/26 00:58:20;;;;;;;25.40;6.22;;;;;;;;;;4962215;28;20046;-78
2021/09/26 01:00:47;;;;;;;29.33;6.65;;;;;;;;;;4976047;28;20027;-77
2021/09/26 01:03:13;;;;;;;37.38;7.55;;;;;;;;;;4963078;28;20030;-77
2021/09/26 01:05:40;;;;;;;27.92;6.65;;;;;;;;;;4966508;28;20561;-76
2021/09/26 01:08:06;;;;;;;33.13;7.30;;;;;;;;;;4957802;28;20042;-76
2021/09/26 01:10:33;;;;;;;31.67;7.65;;;;;;;;;;4961081;28;20209;-78
2021/09/26 01:13:05;;;;;;;32.40;8.68;;;;;;;;;;4976949;28;20101;-76
2021/09/26 01:15:47;;;;;;;27.98;6.55;;;;;;;;;;4976564;28;20084;-75
2021/09/26 01:18:32;;;;;;;35.00;6.80;;;;;;;;;;4971156;28;20125;-76
2021/09/26 01:21:30;;;;;;;36.88;7.68;;;;;;;;;;4959015;28;20689;-76
2021/09/26 01:23:57;;;;;;;29.58;7.60;;;;;;;;;;4937701;28;20523;-76
2021/09/26 01:26:23;;;;;;;33.90;7.25;;;;;;;;;;4956859;28;20039;-75
2021/09/26 01:29:00;;;;;;;35.28;8.00;;;;;;;;;;4961533;28;20415;-76
2021/09/26 01:31:32;;;;;;;35.63;8.35;;;;;;;;;;4956571;28;20062;-76
2021/09/26 01:34:09;;;;;;;34.33;7.88;;;;;;;;;;4960490;28;20061;-76
2021/09/26 01:36:44;;;;;;;35.05;8.30;;;;;;;;;;4962061;28;20030;-77
2021/09/26 01:39:24;;;;;;;35.88;8.30;;;;;;;;;;4966336;28;20042;-75
2021/09/26 01:41:56;;;;;;;39.88;8.43;;;;;;;;;;4961287;28;20915;-76
2021/09/26 01:44:30;;;;;;;31.58;8.45;;;;;;;;;;4969192;28;20073;-76
2021/09/26 01:46:56;;;;;;;32.83;7.50;;;;;;;;;;4960436;28;21412;-77
2021/09/26 01:49:27;;;;;;;34.90;7.80;;;;;;;;;;4958007;28;20620;-76
2021/09/26 01:51:54;;;;;;;47.45;8.30;;;;;;;;;;4958173;28;20057;-76
2021/09/26 01:54:21;;;;;;;28.75;6.95;;;;;;;;;;4960391;28;20031;-76
2021/09/26 01:56:48;;;;;;;38.22;7.63;;;;;;;;;;4961296;28;20045;-76
2021/09/26 01:59:15;;;;;;;32.17;8.15;;;;;;;;;;4971651;28;20105;-76
2021/09/26 02:01:43;;;;;;;32.05;7.18;;;;;;;;;;4960953;28;20542;-76
2021/09/26 02:04:09;;;;;;;30.90;7.40;;;;;;;;;;4951202;28;20629;-76
2021/09/26 02:06:37;;;;;;;28.80;7.65;;;;;;;;;;4962668;28;20070;-76
2021/09/26 02:09:04;;;;;;;37.95;8.45;;;;;;;;;;4978404;28;20567;-76
2021/09/26 02:11:31;;;;;;;30.60;6.40;;;;;;;;;;4978304;28;20049;-76
2021/09/26 02:13:58;;;;;;;35.80;7.38;;;;;;;;;;4979763;28;20121;-76
2021/09/26 02:16:25;;;;;;;39.58;8.25;;;;;;;;;;4973544;28;20741;-76
2021/09/26 02:18:53;;;;;;;29.17;7.18;;;;;;;;;;4975217;28;20037;-79
2021/09/26 02:21:19;;;;;;;33.05;6.78;;;;;;;;;;4957686;28;20488;-76
2021/09/26 02:23:46;;;;;;;27.42;7.15;;;;;;;;;;4961129;28;20782;-77
2021/09/26 02:26:12;;;;;;;34.90;8.40;;;;;;;;;;4950055;28;20043;-76
2021/09/26 02:28:39;;;;;;;32.65;7.40;;;;;;;;;;4966417;28;20042;-76
2021/09/26 02:31:09;;;;;;;26.35;7.05;;;;;;;;;;4955115;28;20056;-76
2021/09/26 02:33:40;;;;;;;35.70;7.55;;;;;;;;;;4962437;28;20038;-76
2021/09/26 02:36:07;;;;;;;31.80;7.60;;;;;;;;;;4960280;28;20045;-76
2021/09/26 02:38:33;;;;;;;35.53;8.10;;;;;;;;;;4959497;28;20035;-76
2021/09/26 02:41:07;;;;;;;30.15;6.93;;;;;;;;;;4964137;28;20042;-76
2021/09/26 02:43:36;;;;;;;30.88;6.82;;;;;;;;;;4956166;28;21973;-76
2021/09/26 02:46:06;;;;;;;38.28;7.30;;;;;;;;;;4967868;28;20696;-76
2021/09/26 02:48:33;;;;;;;37.83;8.30;;;;;;;;;;4980317;28;20125;-76
2021/09/26 02:51:01;;;;;;;36.25;7.20;;;;;;;;;;4961235;28;20050;-76
2021/09/26 02:53:28;;;;;;;34.40;8.48;;;;;;;;;;4958294;28;20030;-77
2021/09/26 02:55:55;;;;;;;27.85;7.55;;;;;;;;;;4961620;28;20038;-76
2021/09/26 02:58:22;;;;;;;24.17;5.93;;;;;;;;;;4964031;28;20073;-76
2021/09/26 03:00:49;;;;;;;32.13;7.03;;;;;;;;;;4979682;28;20686;-76
2021/09/26 03:03:16;;;;;;;30.92;6.40;;;;;;;;;;4981419;28;20023;-76
2021/09/26 03:05:44;;;;;;;34.80;8.13;;;;;;;;;;4978300;28;20031;-77
2021/09/26 03:08:10;;;;;;;30.85;8.13;;;;;;;;;;4962537;28;20728;-76
2021/09/26 03:10:37;;;;;;;35.40;8.90;;;;;;;;;;4983969;28;20034;-76
2021/09/26 03:13:04;;;;;;;28.17;7.28;;;;;;;;;;4962793;28;20511;-76
2021/09/26 03:15:30;;;;;;;29.05;7.95;;;;;;;;;;4956469;28;20026;-76
2021/09/26 03:17:56;;;;;;;30.40;9.57;;;;;;;;;;4960321;28;20045;-76
2021/09/26 03:20:22;;;;;;;34.72;8.23;;;;;;;;;;4958986;28;20112;-76
2021/09/26 03:22:50;;;;;;;33.03;7.63;;;;;;;;;;4981839;28;20034;-78
2021/09/26 03:25:16;;;;;;;31.98;8.13;;;;;;;;;;4960789;28;20038;-78
2021/09/26 03:27:42;;;;;;;34.58;7.68;;;;;;;;;;4975138;28;20149;-76
2021/09/26 03:30:09;;;;;;;35.55;8.00;;;;;;;;;;4976567;28;20023;-76
2021/09/26 03:32:35;;;;;;;29.40;7.82;;;;;;;;;;4961143;28;20531;-76
2021/09/26 03:35:03;;;;;;;35.80;7.88;;;;;;;;;;4964646;28;20034;-79
2021/09/26 03:37:29;;;;;;;35.20;8.20;;;;;;;;;;4976296;28;20071;-78
2021/09/26 03:39:55;;;;;;;32.55;8.00;;;;;;;;;;4971929;28;20034;-76
2021/09/26 03:42:22;;;;;;;32.63;7.43;;;;;;;;;;4961032;28;20038;-76
2021/09/26 03:44:48;;;;;;;39.85;9.15;;;;;;;;;;4976718;28;20042;-77
2021/09/26 03:47:14;;;;;;;32.30;8.27;;;;;;;;;;4954679;28;20077;-77
2021/09/26 03:49:40;;;;;;;25.80;6.93;;;;;;;;;;4977536;28;20873;-76
2021/09/26 03:52:06;;;;;;;33.63;8.18;;;;;;;;;;4972947;28;20060;-75
2021/09/26 03:54:32;;;;;;;33.78;8.02;;;;;;;;;;4965480;28;20350;-78
2021/09/26 03:56:59;;;;;;;34.10;8.55;;;;;;;;;;4962624;28;20050;-76
2021/09/26 03:59:25;;;;;;;28.52;7.82;;;;;;;;;;4972638;28;20046;-76
2021/09/26 04:01:51;;;;;;;24.52;7.35;;;;;;;;;;4979429;28;20125;-78
2021/09/26 04:04:17;;;;;;;32.13;8.13;;;;;;;;;;4956526;28;20074;-76
2021/09/26 04:06:44;;;;;;;31.90;8.25;;;;;;;;;;4976925;28;20026;-77
2021/09/26 04:09:11;;;;;;;36.25;7.00;;;;;;;;;;4975074;28;20033;-76
2021/09/26 04:11:38;;;;;;;32.72;7.97;;;;;;;;;;4973689;28;20045;-76
2021/09/26 04:14:04;;;;;;;35.60;8.23;;;;;;;;;;4960515;28;20101;-76
2021/09/26 04:16:31;;;;;;;36.08;7.85;;;;;;;;;;4960026;28;20071;-76
2021/09/26 04:18:57;;;;;;;29.52;7.45;;;;;;;;;;4974146;28;20125;-76
2021/09/26 04:21:23;;;;;;;37.95;8.35;;;;;;;;;;4959875;28;20045;-78
2021/09/26 04:23:50;;;;;;;27.85;7.13;;;;;;;;;;4976124;28;20121;-76
2021/09/26 04:26:16;;;;;;;28.95;8.15;;;;;;;;;;4973013;28;20165;-76
2021/09/26 04:28:43;;;;;;;38.38;7.68;;;;;;;;;;4958652;28;20038;-76
2021/09/26 04:31:09;;;;;;;32.13;8.02;;;;;;;;;;4955664;28;20053;-75
2021/09/26 04:33:35;;;;;;;26.08;7.40;;;;;;;;;;4961812;28;21427;-77
2021/09/26 04:36:01;;;;;;;33.70;7.75;;;;;;;;;;4976630;28;20042;-77
2021/09/26 04:38:28;;;;;;;40.65;8.35;;;;;;;;;;4956983;28;20101;-77
2021/09/26 04:40:54;;;;;;;31.60;7.43;;;;;;;;;;4972819;28;20108;-77
2021/09/26 04:43:20;;;;;;;39.97;8.15;;;;;;;;;;4957505;28;20042;-76
2021/09/26 04:45:47;;;;;;;31.00;8.13;;;;;;;;;;4960236;28;20157;-77
2021/09/26 04:48:15;;;;;;;35.05;8.13;;;;;;;;;;4957057;28;20025;-76
2021/09/26 04:50:42;;;;;;;31.30;7.45;;;;;;;;;;4956743;28;20070;-76
2021/09/26 04:53:08;;;;;;;36.83;7.80;;;;;;;;;;4957919;28;20062;-76
2021/09/26 04:55:34;;;;;;;29.25;7.38;;;;;;;;;;4963348;28;20057;-78
2021/09/26 04:58:00;;;;;;;30.08;8.13;;;;;;;;;;4963723;28;20064;-77
2021/09/26 05:00:27;;;;;;;32.78;8.20;;;;;;;;;;4959015;28;20034;-77
2021/09/26 05:02:55;;;;;;;33.83;8.40;;;;;;;;;;4959497;28;20067;-76
2021/09/26 05:05:21;;;;;;;33.95;8.13;;;;;;;;;;4964296;28;20034;-76
2021/09/26 05:07:48;;;;;;;34.35;9.05;;;;;;;;;;4971309;28;20039;-75
2021/09/26 05:10:14;;;;;;;30.83;10.25;;;;;;;;;;4970881;28;20691;-76
2021/09/26 05:12:40;;;;;;;34.40;9.88;;;;;;;;;;4977848;28;20037;-76
2021/09/26 05:15:07;;;;;;;37.53;9.48;;;;;;;;;;4959572;28;20027;-76
2021/09/26 05:17:33;;;;;;;33.88;8.70;;;;;;;;;;4977408;28;20383;-75
2021/09/26 05:20:00;;;;;;;32.80;8.43;;;;;;;;;;4963709;28;20040;-76
2021/09/26 05:22:27;;;;;;;35.70;8.90;;;;;;;;;;4957114;28;20736;-76
2021/09/26 05:24:53;;;;;;;38.13;8.93;;;;;;;;;;4975246;28;20085;-76
2021/09/26 05:27:20;;;;;;;32.25;8.90;;;;;;;;;;4958376;28;20026;-76
2021/09/26 05:29:46;;;;;;;33.22;8.93;;;;;;;;;;4965162;28;20084;-78
2021/09/26 05:32:12;;;;;;;32.60;8.73;;;;;;;;;;4957612;28;20035;-76
2021/09/26 05:34:38;;;;;;;35.03;8.75;;;;;;;;;;4963496;28;20100;-76
2021/09/26 05:37:05;;;;;;;30.15;8.38;;;;;;;;;;4956331;28;20126;-76
2021/09/26 05:39:31;;;;;;;38.00;9.05;;;;;;;;;;4965375;28;20038;-76
2021/09/26 05:41:59;;;;;;;28.52;8.27;;;;;;;;;;4964121;28;20597;-76
2021/09/26 05:44:25;;;;;;;32.38;8.98;;;;;;;;;;4956406;28;20038;-76
2021/09/26 05:46:51;;;;;;;33.65;8.52;;;;;;;;;;4968956;28;20122;-77
2021/09/26 05:49:17;;;;;;;31.38;9.98;;;;;;;;;;4974822;28;20826;-76
2021/09/26 05:51:50;;;;;;;34.80;10.30;;;;;;;;;;4978457;28;23125;-76
2021/09/26 05:54:16;;;;;;;36.70;10.38;;;;;;;;;;4962068;28;20852;-75
2021/09/26 05:56:42;;;;;;;27.85;10.15;;;;;;;;;;4960838;28;20042;-76
2021/09/26 05:59:09;;;;;;;34.65;11.57;;;;;;;;;;4955588;28;20049;-78
2021/09/26 06:01:35;;;;;;;34.05;11.90;;;;;;;;;;4960875;28;20050;-76
2021/09/26 06:04:01;;;;;;;34.25;12.90;;;;;;;;;;4963964;28;20307;-76
2021/09/26 06:06:27;;;;;;;47.22;14.30;;;;;;;;;;4963646;28;20034;-78
2021/09/26 06:08:53;;;;;;;41.42;13.30;;;;;;;;;;4978737;28;20070;-77
2021/09/26 06:11:20;;;;;;;36.63;11.75;;;;;;;;;;4975831;28;20042;-76
2021/09/26 06:13:46;;;;;;;38.75;11.38;;;;;;;;;;4964283;28;20065;-76
2021/09/26 06:16:12;;;;;;;32.72;11.50;;;;;;;;;;4971913;28;20072;-76
2021/09/26 06:18:38;;;;;;;32.10;11.40;;;;;;;;;;4979347;28;20035;-76
2021/09/26 06:21:05;;;;;;;31.30;11.60;;;;;;;;;;4976731;28;20191;-76
2021/09/26 06:23:32;;;;;;;41.28;13.75;;;;;;;;;;4962060;28;20038;-77
2021/09/26 06:26:00;;;;;;;34.83;11.45;;;;;;;;;;4965872;28;20879;-77
2021/09/26 06:28:26;;;;;;;36.40;10.38;;;;;;;;;;4974389;28;20043;-76
2021/09/26 06:30:53;;;;;;;34.47;10.63;;;;;;;;;;4979514;28;20416;-78
2021/09/26 06:33:19;;;;;;;31.05;9.45;;;;;;;;;;4961121;28;20134;-76
2021/09/26 06:35:45;;;;;;;33.33;9.05;;;;;;;;;;4978087;28;20121;-76
2021/09/26 06:38:11;;;;;;;33.50;8.98;;;;;;;;;;4960017;28;20034;-76
2021/09/26 06:40:38;;;;;;;27.80;8.57;;;;;;;;;;4981862;28;20046;-77
2021/09/26 06:43:04;;;;;;;30.85;10.10;;;;;;;;;;4980119;28;20089;-77
2021/09/26 06:45:30;;;;;;;36.67;10.75;;;;;;;;;;4965980;28;20042;-76
2021/09/26 06:47:57;;;;;;;35.50;11.52;;;;;;;;;;4976563;28;20112;-76
2021/09/26 06:50:23;;;;;;;34.92;10.02;;;;;;;;;;4974589;28;20137;-78
2021/09/26 06:52:49;;;;;;;29.60;9.68;;;;;;;;;;4980450;28;20176;-76
2021/09/26 06:55:15;;;;;;;22.42;7.60;;;;;;;;;;4957456;28;20049;-77
2021/09/26 06:57:41;;;;;;;28.30;8.43;;;;;;;;;;4965241;28;20025;-78
2021/09/26 07:00:10;;;;;;;26.92;8.05;;;;;;;;;;4954863;28;20137;-77
2021/09/26 07:02:36;;;;;;;32.42;7.47;;;;;;;;;;4957715;28;20057;-77
2021/09/26 07:05:02;;;;;;;30.35;7.60;;;;;;;;;;4964109;28;20559;-77
2021/09/26 07:07:28;;;;;;;24.52;7.03;;;;;;;;;;4973544;28;20042;-77
2021/09/26 07:09:54;;;;;;;33.15;8.23;;;;;;;;;;4966706;28;20041;-76
2021/09/26 07:12:21;;;;;;;29.70;8.48;;;;;;;;;;4964655;28;20027;-77
2021/09/26 07:14:51;;;;;;;33.45;8.93;;;;;;;;;;4974951;28;20044;-78
2021/09/26 07:17:19;;;;;;;31.05;8.13;;;;;;;;;;4964971;28;20736;-77
2021/09/26 07:19:45;;;;;;;39.38;8.68;;;;;;;;;;4963886;28;20077;-77
2021/09/26 07:22:12;;;;;;;33.13;8.57;;;;;;;;;;4955967;28;20034;-78
2021/09/26 07:24:38;;;;;;;25.08;8.05;;;;;;;;;;4976378;28;20038;-79
2021/09/26 07:27:04;;;;;;;39.55;9.43;;;;;;;;;;4963770;28;20690;-77
2021/09/26 07:29:31;;;;;;;27.23;8.40;;;;;;;;;;4957740;28;20047;-78
2021/09/26 07:31:59;;;;;;;32.70;9.65;;;;;;;;;;4960777;28;20030;-77
2021/09/26 07:34:26;;;;;;;30.25;9.10;;;;;;;;;;4974675;28;20157;-76
2021/09/26 07:36:52;;;;;;;27.17;8.05;;;;;;;;;;4955812;28;20022;-78
2021/09/26 07:39:18;;;;;;;28.85;7.95;;;;;;;;;;4961137;28;20030;-77
2021/09/26 07:41:44;;;;;;;27.10;8.68;;;;;;;;;;4961361;28;20518;-79
2021/09/26 07:44:21;;;;;;;29.65;8.23;;;;;;;;;;4956283;28;20039;-77
2021/09/26 07:46:47;;;;;;;27.48;7.38;;;;;;;;;;4962487;28;21437;-79
2021/09/26 07:49:15;;;;;;;29.00;8.27;;;;;;;;;;4954452;28;20509;-77
2021/09/26 07:51:41;;;;;;;31.27;8.38;;;;;;;;;;4962331;28;20037;-77
2021/09/26 07:54:08;;;;;;;32.22;7.80;;;;;;;;;;4955438;28;20610;-76
2021/09/26 07:56:34;;;;;;;38.90;8.55;;;;;;;;;;4973796;28;20049;-77
2021/09/26 07:59:00;;;;;;;30.95;7.63;;;;;;;;;;4975046;28;20034;-78
2021/09/26 08:01:26;;;;;;;29.63;7.97;;;;;;;;;;4970686;28;20042;-78
2021/09/26 08:03:53;;;;;;;29.98;7.70;;;;;;;;;;4960928;28;20121;-78
2021/09/26 08:06:19;;;;;;;30.88;7.60;;;;;;;;;;4951514;28;20030;-77
2021/09/26 08:08:48;;;;;;;41.50;7.47;;;;;;;;;;4953911;28;20524;-77
2021/09/26 08:11:14;;;;;;;36.60;9.00;;;;;;;;;;4955616;28;20060;-78
2021/09/26 08:13:40;;;;;;;33.72;7.65;;;;;;;;;;4959901;28;20038;-77
2021/09/26 08:16:07;;;;;;;30.48;6.68;;;;;;;;;;4954445;28;20559;-77
2021/09/26 08:18:33;;;;;;;31.10;7.30;;;;;;;;;;4961510;28;20038;-78
2021/09/26 08:20:59;;;;;;;34.40;7.47;;;;;;;;;;4958689;28;21699;-77
2021/09/26 08:23:26;;;;;;;31.02;9.13;;;;;;;;;;4956639;28;20051;-78
2021/09/26 08:25:52;;;;;;;23.30;7.65;;;;;;;;;;4978417;28;20074;-78
2021/09/26 08:28:39;;;;;;;28.15;7.85;;;;;;;;;;4963740;28;20037;-77
2021/09/26 08:31:06;;;;;;;32.30;7.07;;;;;;;;;;4967417;28;20042;-77
2021/09/26 08:33:32;;;;;;;26.23;6.97;;;;;;;;;;4962856;28;20050;-78
2021/09/26 08:36:02;;;;;;;29.60;6.93;;;;;;;;;;4960255;28;20117;-77
2021/09/26 08:38:28;;;;;;;29.13;6.80;;;;;;;;;;4950072;28;20056;-77
2021/09/26 08:40:55;;;;;;;25.10;6.30;;;;;;;;;;4972671;28;20042;-78
2021/09/26 08:43:21;;;;;;;36.67;7.88;;;;;;;;;;4965598;28;20046;-77
2021/09/26 08:45:48;;;;;;;29.52;7.32;;;;;;;;;;4974068;28;20030;-77
2021/09/26 08:48:14;;;;;;;29.73;6.70;;;;;;;;;;4955736;28;20065;-77
2021/09/26 08:50:43;;;;;;;28.05;6.75;;;;;;;;;;4966547;28;20143;-77
2021/09/26 08:53:11;;;;;;;23.13;5.97;;;;;;;;;;4954772;28;20037;-77
2021/09/26 08:55:37;;;;;;;38.15;7.63;;;;;;;;;;4960894;28;20707;-79
2021/09/26 08:58:04;;;;;;;36.22;7.03;;;;;;;;;;4960321;28;20027;-78
2021/09/26 09:00:30;;;;;;;27.48;7.45;;;;;;;;;;4974617;28;20117;-78
2021/09/26 09:02:58;;;;;;;31.92;6.80;;;;;;;;;;4975819;28;20042;-78
2021/09/26 09:05:27;;;;;;;38.08;7.65;;;;;;;;;;4956853;28;20046;-78
2021/09/26 09:08:03;;;;;;;35.00;6.88;;;;;;;;;;4962011;28;20031;-78
2021/09/26 09:10:40;;;;;;;35.42;6.70;;;;;;;;;;4954539;28;20034;-78
2021/09/26 09:13:07;;;;;;;36.35;7.68;;;;;;;;;;4952211;28;20072;-78
2021/09/26 09:15:33;;;;;;;34.53;8.40;;;;;;;;;;4960818;28;20030;-78
2021/09/26 09:18:03;;;;;;;25.20;8.90;;;;;;;;;;4963547;28;20042;-78
2021/09/26 09:20:31;;;;;;;40.33;9.05;;;;;;;;;;4977426;28;20038;-79
2021/09/26 09:23:09;;;;;;;38.97;10.65;;;;;;;;;;4959850;28;20035;-78
2021/09/26 09:25:41;;;;;;;31.55;10.73;;;;;;;;;;4961646;28;20602;-77
2021/09/26 09:28:09;;;;;;;33.70;11.05;;;;;;;;;;4959589;28;20035;-77
2021/09/26 09:30:37;;;;;;;31.42;9.95;;;;;;;;;;4958298;28;20027;-77
2021/09/26 09:33:04;;;;;;;29.35;9.23;;;;;;;;;;4964117;28;20040;-78
2021/09/26 09:35:35;;;;;;;32.90;9.15;;;;;;;;;;4973699;28;20046;-77
2021/09/26 09:38:01;;;;;;;30.15;8.18;;;;;;;;;;4973547;28;20038;-78
2021/09/26 09:40:38;;;;;;;;;;;;;;;;;;;;;
2021/09/26 09:43:05;;;;;;;37.00;8.80;;;;;;;;;;4963064;28;20037;-78
2021/09/26 09:45:33;;;;;;;30.58;8.23;;;;;;;;;;4958910;28;20032;-76
2021/09/26 09:48:00;;;;;;;24.48;7.30;;;;;;;;;;4958581;28;20121;-77
2021/09/26 09:50:31;;;;;;;21.23;7.90;;;;;;;;;;4959678;28;20623;-77
2021/09/26 09:52:57;;;;;;;30.20;7.85;;;;;;;;;;4951269;28;20030;-77
2021/09/26 09:55:26;;;;;;;22.80;7.82;;;;;;;;;;4962166;28;20051;-76
2021/09/26 09:57:53;;;;;;;31.75;8.38;;;;;;;;;;4956991;28;20057;-76
2021/09/26 10:00:22;;;;;;;32.58;8.30;;;;;;;;;;4955279;28;20042;-77
2021/09/26 10:02:48;;;;;;;32.95;8.30;;;;;;;;;;4959418;28;20462;-78
2021/09/26 10:05:34;;;;;;;34.65;9.85;;;;;;;;;;4957808;28;20124;-78
2021/09/26 10:08:01;;;;;;;28.70;8.00;;;;;;;;;;4960061;28;20034;-78
2021/09/26 10:10:31;;;;;;;32.05;8.57;;;;;;;;;;4972002;28;20041;-78
2021/09/26 10:13:10;;;;;;;28.98;9.27;;;;;;;;;;4959524;28;20802;-78
2021/09/26 10:15:37;;;;;;;29.67;8.35;;;;;;;;;;4971702;28;20026;-77
2021/09/26 10:18:04;;;;;;;29.33;8.48;;;;;;;;;;4961825;28;20037;-78
2021/09/26 10:20:30;;;;;;;30.10;7.15;;;;;;;;;;4958976;28;20038;-78
2021/09/26 10:22:58;;;;;;;29.80;7.57;;;;;;;;;;4961482;28;20700;-77
2021/09/26 10:25:24;;;;;;;27.05;7.68;;;;;;;;;;4958472;28;20299;-79
2021/09/26 10:27:52;;;;;;;27.63;7.07;;;;;;;;;;4958183;28;20034;-79
2021/09/26 10:30:21;;;;;;;30.75;7.20;;;;;;;;;;4958440;28;20396;-78
2021/09/26 10:32:49;;;;;;;28.42;7.30;;;;;;;;;;4956192;28;20074;-78
2021/09/26 10:35:16;;;;;;;30.65;8.25;;;;;;;;;;4956526;28;20066;-79
2021/09/26 10:37:42;;;;;;;32.42;7.80;;;;;;;;;;4959451;28;20448;-78
2021/09/26 10:40:09;;;;;;;29.98;7.00;;;;;;;;;;4956395;28;20339;-79
2021/09/26 10:42:37;;;;;;;29.83;6.85;;;;;;;;;;4959104;28;20109;-77
2021/09/26 10:45:05;;;;;;;29.33;7.03;;;;;;;;;;4963212;28;20027;-79
2021/09/26 10:47:35;;;;;;;30.42;6.78;;;;;;;;;;4958008;28;20023;-77
2021/09/26 10:50:01;;;;;;;22.95;6.50;;;;;;;;;;4960012;28;20118;-78
2021/09/26 10:52:29;;;;;;;26.98;7.18;;;;;;;;;;4954099;28;20734;-78
2021/09/26 10:54:57;;;;;;;26.67;8.57;;;;;;;;;;4958209;28;20121;-79
2021/09/26 10:57:27;;;;;;;29.75;7.55;;;;;;;;;;4956737;28;20479;-77
2021/09/26 10:59:54;;;;;;;35.88;12.82;;;;;;;;;;4971825;28;20082;-80
2021/09/26 11:02:23;;;;;;;26.98;13.57;;;;;;;;;;4953316;28;21068;-78
2021/09/26 11:04:54;;;;;;;29.98;8.52;;;;;;;;;;4974573;28;20068;-77
2021/09/26 11:07:23;;;;;;;27.38;9.90;;;;;;;;;;4954498;28;20312;-77
2021/09/26 11:09:51;;;;;;;30.77;8.32;;;;;;;;;;4958987;28;20039;-78
2021/09/26 11:12:37;;;;;;;27.08;6.82;;;;;;;;;;4970417;28;20571;-79
2021/09/26 11:15:04;;;;;;;25.77;7.20;;;;;;;;;;4974381;28;20035;-78
2021/09/26 11:17:59;;;;;;;33.22;7.35;;;;;;;;;;4953558;28;20077;-77
2021/09/26 11:20:25;;;;;;;27.48;7.35;;;;;;;;;;4951308;28;20764;-79
2021/09/26 11:23:08;;;;;;;24.75;6.80;;;;;;;;;;4960651;28;20046;-79
2021/09/26 11:25:53;;;;;;;30.00;7.18;;;;;;;;;;4979692;28;20769;-79
2021/09/26 11:28:19;;;;;;;;;;;;;;;;;;4973101;28;20046;-79
2021/09/26 11:30:45;;;;;;;23.73;6.32;;;;;;;;;;4960494;28;20525;-80
2021/09/26 11:33:11;;;;;;;25.88;6.82;;;;;;;;;;4955322;28;20033;-77
2021/09/26 11:35:38;;;;;;;29.27;7.47;;;;;;;;;;4964234;28;20038;-76
2021/09/26 11:38:06;;;;;;;25.50;7.22;;;;;;;;;;4959332;28;20108;-77
2021/09/26 11:40:53;;;;;;;24.70;7.00;;;;;;;;;;4975690;28;20030;-77
2021/09/26 11:43:21;;;;;;;21.67;7.05;;;;;;;;;;4957083;28;20141;-77
2021/09/26 11:45:47;;;;;;;23.98;6.75;;;;;;;;;;4963747;28;20490;-77
2021/09/26 11:48:13;;;;;;;31.42;7.30;;;;;;;;;;4974126;28;20643;-78
2021/09/26 11:50:41;;;;;;;30.17;7.18;;;;;;;;;;4958556;28;20081;-78
2021/09/26 11:53:08;;;;;;;23.00;6.32;;;;;;;;;;4959820;28;20165;-78
2021/09/26 11:55:36;;;;;;;29.20;6.80;;;;;;;;;;4961683;28;20041;-78
2021/09/26 11:58:03;;;;;;;25.67;6.93;;;;;;;;;;4960968;28;20503;-78
2021/09/26 12:00:34;;;;;;;28.63;7.38;;;;;;;;;;4961764;28;20033;-78
2021/09/26 12:03:21;;;;;;;30.38;7.40;;;;;;;;;;4963430;28;20046;-78
2021/09/26 12:05:48;;;;;;;29.83;6.60;;;;;;;;;;4959881;28;20468;-78
2021/09/26 12:08:14;;;;;;;22.30;6.30;;;;;;;;;;4959743;28;20056;-78
2021/09/26 12:10:41;;;;;;;28.05;6.82;;;;;;;;;;4957955;28;20065;-78
2021/09/26 12:13:25;;;;;;;25.27;6.70;;;;;;;;;;4955973;28;20027;-78
2021/09/26 12:15:51;;;;;;;27.60;6.15;;;;;;;;;;4956683;28;20149;-78
2021/09/26 12:18:22;;;;;;;31.25;7.35;;;;;;;;;;4972763;28;20364;-78
2021/09/26 12:20:49;;;;;;;31.23;6.68;;;;;;;;;;4942706;28;20039;-78
2021/09/26 12:23:19;;;;;;;27.58;7.15;;;;;;;;;;4936996;28;20108;-78
2021/09/26 12:25:45;;;;;;;24.10;6.18;;;;;;;;;;4948658;28;20045;-78
2021/09/26 12:28:19;;;;;;;32.17;7.18;;;;;;;;;;4969064;28;20026;-78
2021/09/26 12:30:50;;;;;;;23.08;6.03;;;;;;;;;;4960784;28;20045;-78
2021/09/26 12:33:39;;;;;;;30.48;6.47;;;;;;;;;;4955827;28;20026;-78
2021/09/26 12:36:06;;;;;;;27.80;6.10;;;;;;;;;;4956741;28;20039;-77
2021/09/26 12:38:41;;;;;;;26.35;6.38;;;;;;;;;;4957578;28;20420;-78
2021/09/26 12:41:14;;;;;;;24.38;6.53;;;;;;;;;;4953939;28;20659;-78
2021/09/26 12:44:00;;;;;;;27.25;6.72;;;;;;;;;;4956795;28;20156;-78
2021/09/26 12:46:29;;;;;;;31.17;7.82;;;;;;;;;;4972729;28;20081;-78
2021/09/26 12:48:55;;;;;;;22.20;5.55;;;;;;;;;;4960648;28;20035;-77
2021/09/26 12:51:29;;;;;;;28.73;5.90;;;;;;;;;;4969871;28;20189;-78
2021/09/26 12:53:56;;;;;;;23.80;5.97;;;;;;;;;;4976362;28;20042;-78
2021/09/26 12:56:24;;;;;;;26.38;6.40;;;;;;;;;;4968709;28;20038;-78
2021/09/26 12:58:55;;;;;;;22.83;5.65;;;;;;;;;;4960590;28;20053;-77
2021/09/26 13:01:34;;;;;;;26.10;6.32;;;;;;;;;;4971197;28;20043;-77
2021/09/26 13:04:21;;;;;;;28.63;6.22;;;;;;;;;;4956704;28;20041;-77
2021/09/26 13:06:52;;;;;;;22.80;6.63;;;;;;;;;;4956701;28;20419;-78
2021/09/26 13:09:29;;;;;;;24.35;6.50;;;;;;;;;;4954472;28;20130;-78
2021/09/26 13:11:56;;;;;;;26.95;7.60;;;;;;;;;;4956397;28;20038;-78
2021/09/26 13:14:22;;;;;;;24.40;6.55;;;;;;;;;;4955516;28;20043;-78
2021/09/26 13:16:49;;;;;;;26.70;6.70;;;;;;;;;;4958593;28;20050;-78
2021/09/26 13:19:24;;;;;;;23.38;6.75;;;;;;;;;;4956529;28;20045;-78
2021/09/26 13:22:01;;;;;;;29.15;6.80;;;;;;;;;;4977471;28;20019;-77
2021/09/26 13:24:27;;;;;;;22.35;6.55;;;;;;;;;;4955238;28;20113;-79
2021/09/26 13:26:53;;;;;;;24.88;6.28;;;;;;;;;;4958238;28;20034;-78
2021/09/26 13:29:23;;;;;;;24.77;6.22;;;;;;;;;;4975157;28;20482;-79
2021/09/26 13:31:53;;;;;;;26.20;5.85;;;;;;;;;;4964267;28;20868;-79
2021/09/26 13:34:28;;;;;;;28.98;7.00;;;;;;;;;;4970692;28;20049;-77
2021/09/26 13:36:58;;;;;;;26.48;6.38;;;;;;;;;;4959971;28;20539;-77
2021/09/26 13:39:53;;;;;;;23.48;6.10;;;;;;;;;;4955921;28;21379;-79
2021/09/26 13:42:20;;;;;;;24.98;6.40;;;;;;;;;;4950096;28;20117;-79
2021/09/26 13:44:47;;;;;;;31.38;7.30;;;;;;;;;;4977292;28;20042;-79
2021/09/26 13:47:14;;;;;;;26.55;6.10;;;;;;;;;;4975399;28;20141;-77
2021/09/26 13:49:40;;;;;;;28.58;6.88;;;;;;;;;;4959073;28;20088;-78
2021/09/26 13:52:06;;;;;;;20.73;6.68;;;;;;;;;;4976521;28;20038;-77
2021/09/26 13:54:33;;;;;;;21.65;5.82;;;;;;;;;;4958822;28;20894;-79
2021/09/26 13:57:00;;;;;;;26.80;6.70;;;;;;;;;;4959902;28;20034;-78
2021/09/26 13:59:28;;;;;;;27.55;6.93;;;;;;;;;;4957193;28;20038;-78
2021/09/26 14:01:54;;;;;;;26.45;7.20;;;;;;;;;;4973645;28;20120;-78
2021/09/26 14:04:20;;;;;;;28.95;7.50;;;;;;;;;;4969230;28;20057;-77
2021/09/26 14:06:47;;;;;;;25.55;6.85;;;;;;;;;;4988188;28;20965;-77
2021/09/26 14:09:14;;;;;;;27.63;7.35;;;;;;;;;;4979817;28;20034;-78
2021/09/26 14:11:40;;;;;;;25.13;7.03;;;;;;;;;;4965894;28;20443;-78
2021/09/26 14:14:07;;;;;;;24.92;6.65;;;;;;;;;;4961464;28;20045;-78
2021/09/26 14:16:34;;;;;;;27.02;7.10;;;;;;;;;;4979115;28;20585;-78
2021/09/26 14:19:00;;;;;;;24.15;6.30;;;;;;;;;;4964960;28;20087;-78
2021/09/26 14:21:26;;;;;;;24.65;6.65;;;;;;;;;;4962423;28;20113;-79
2021/09/26 14:23:54;;;;;;;24.13;7.43;;;;;;;;;;4979021;28;20953;-76
2021/09/26 14:26:20;;;;;;;25.42;6.82;;;;;;;;;;4959393;28;20027;-78
2021/09/26 14:28:47;;;;;;;23.23;6.85;;;;;;;;;;4961937;28;20383;-77
2021/09/26 14:31:14;;;;;;;26.30;6.82;;;;;;;;;;4974488;28;20042;-78
2021/09/26 14:33:42;;;;;;;26.85;6.30;;;;;;;;;;4963718;28;20028;-78
2021/09/26 14:36:09;;;;;;;25.85;6.88;;;;;;;;;;4960145;28;20361;-78
2021/09/26 14:38:36;;;;;;;21.00;6.63;;;;;;;;;;4978127;28;20039;-76